Terminal Aerodrome Forecast
Issued by NWS

Home | Current Version | Previous Version | Text Only | Print | Product List | Glossary On
Versions: 1 2 3 4 5 6 7 8 9 10 11 12 13 14 15 16 17 18
929
FTUS42 KMHX 250904 AAB
TAFOAJ
TAF AMD
KOAJ 250904Z 2509/2606 21010KT 5SM -SHRA SCT007 OVC015
      TEMPO 2509/2511 OVC007
     FM251200 20009KT P6SM BKN025
     FM251500 19008KT P6SM VCSH SCT025 BKN040
     FM252300 27005KT P6SM SCT025 BKN040
      AMD LTD TO CLD VIS AND WIND=

USA.gov is the U.S. government's official web portal to all federal, state and local government web resources and services.